sensor_id;sensor_type;location;lat;lon;timestamp;P1;durP1;ratioP1;P2;durP2;ratioP2
63193;SDS011;49289;51.670;5.624;2023-12-20T00:00:05;18.10;;;6.40;;
63193;SDS011;49289;51.670;5.624;2023-12-20T00:01:53;16.60;;;6.60;;
63193;SDS011;49289;51.670;5.624;2023-12-20T00:03:40;18.10;;;6.80;;
63193;SDS011;49289;51.670;5.624;2023-12-20T00:05:27;26.50;;;7.20;;
63193;SDS011;49289;51.670;5.624;2023-12-20T00:07:14;17.20;;;6.60;;
63193;SDS011;49289;51.670;5.624;2023-12-20T00:09:01;16.20;;;6.50;;
63193;SDS011;49289;51.670;5.624;2023-12-20T00:10:47;17.10;;;6.40;;
63193;SDS011;49289;51.670;5.624;2023-12-20T00:12:34;17.40;;;6.60;;
63193;SDS011;49289;51.670;5.624;2023-12-20T00:14:21;19.30;;;6.60;;
63193;SDS011;49289;51.670;5.624;2023-12-20T00:16:09;21.40;;;6.60;;
63193;SDS011;49289;51.670;5.624;2023-12-20T00:17:56;23.40;;;6.30;;
63193;SDS011;49289;51.670;5.624;2023-12-20T00:19:42;17.20;;;5.00;;
63193;SDS011;49289;51.670;5.624;2023-12-20T00:21:29;19.10;;;6.00;;
63193;SDS011;49289;51.670;5.624;2023-12-20T00:23:16;16.90;;;5.10;;
63193;SDS011;49289;51.670;5.624;2023-12-20T00:25:03;21.00;;;5.80;;
63193;SDS011;49289;51.670;5.624;2023-12-20T00:26:50;22.30;;;6.00;;
63193;SDS011;49289;51.670;5.624;2023-12-20T00:28:38;21.70;;;6.20;;
63193;SDS011;49289;51.670;5.624;2023-12-20T00:30:25;21.50;;;6.70;;
63193;SDS011;49289;51.670;5.624;2023-12-20T00:32:12;19.00;;;6.60;;
63193;SDS011;49289;51.670;5.624;2023-12-20T00:33:59;20.40;;;6.40;;
63193;SDS011;49289;51.670;5.624;2023-12-20T00:35:46;21.30;;;6.10;;
63193;SDS011;49289;51.670;5.624;2023-12-20T00:37:33;15.70;;;6.80;;
63193;SDS011;49289;51.670;5.624;2023-12-20T00:39:19;17.20;;;6.60;;
63193;SDS011;49289;51.670;5.624;2023-12-20T00:41:07;22.20;;;7.40;;
63193;SDS011;49289;51.670;5.624;2023-12-20T00:42:54;23.30;;;7.40;;
63193;SDS011;49289;51.670;5.624;2023-12-20T00:44:41;26.70;;;8.00;;
63193;SDS011;49289;51.670;5.624;2023-12-20T00:46:28;26.80;;;7.80;;
63193;SDS011;49289;51.670;5.624;2023-12-20T00:48:15;25.30;;;8.60;;
63193;SDS011;49289;51.670;5.624;2023-12-20T00:50:01;23.50;;;8.70;;
63193;SDS011;49289;51.670;5.624;2023-12-20T00:51:49;24.90;;;8.70;;
63193;SDS011;49289;51.670;5.624;2023-12-20T00:53:36;25.40;;;9.00;;
63193;SDS011;49289;51.670;5.624;2023-12-20T00:55:23;23.40;;;8.00;;
63193;SDS011;49289;51.670;5.624;2023-12-20T00:57:10;20.40;;;8.50;;
63193;SDS011;49289;51.670;5.624;2023-12-20T00:58:57;23.20;;;8.30;;
63193;SDS011;49289;51.670;5.624;2023-12-20T01:00:44;23.40;;;8.00;;
63193;SDS011;49289;51.670;5.624;2023-12-20T01:02:31;23.50;;;7.30;;
63193;SDS011;49289;51.670;5.624;2023-12-20T01:04:18;24.90;;;7.60;;
63193;SDS011;49289;51.670;5.624;2023-12-20T01:06:04;19.50;;;6.50;;
63193;SDS011;49289;51.670;5.624;2023-12-20T01:07:51;22.80;;;6.90;;
63193;SDS011;49289;51.670;5.624;2023-12-20T01:09:38;17.70;;;5.80;;
63193;SDS011;49289;51.670;5.624;2023-12-20T01:11:25;24.40;;;6.60;;
63193;SDS011;49289;51.670;5.624;2023-12-20T01:13:12;19.80;;;6.20;;
63193;SDS011;49289;51.670;5.624;2023-12-20T01:14:59;20.00;;;5.30;;
63193;SDS011;49289;51.670;5.624;2023-12-20T01:16:46;20.40;;;5.20;;
63193;SDS011;49289;51.670;5.624;2023-12-20T01:18:32;23.80;;;4.90;;
63193;SDS011;49289;51.670;5.624;2023-12-20T01:20:19;16.10;;;4.30;;
63193;SDS011;49289;51.670;5.624;2023-12-20T01:22:06;16.50;;;4.30;;
63193;SDS011;49289;51.670;5.624;2023-12-20T01:23:53;17.50;;;4.30;;
63193;SDS011;49289;51.670;5.624;2023-12-20T01:25:40;19.90;;;4.40;;
63193;SDS011;49289;51.670;5.624;2023-12-20T01:27:27;22.90;;;4.10;;
63193;SDS011;49289;51.670;5.624;2023-12-20T01:29:14;21.60;;;4.60;;
63193;SDS011;49289;51.670;5.624;2023-12-20T01:31:01;16.80;;;4.00;;
63193;SDS011;49289;51.670;5.624;2023-12-20T01:32:48;17.50;;;3.60;;
63193;SDS011;49289;51.670;5.624;2023-12-20T01:34:35;17.30;;;3.60;;
63193;SDS011;49289;51.670;5.624;2023-12-20T01:36:22;17.70;;;4.10;;
63193;SDS011;49289;51.670;5.624;2023-12-20T01:38:09;16.00;;;3.70;;
63193;SDS011;49289;51.670;5.624;2023-12-20T01:39:56;16.90;;;3.40;;
63193;SDS011;49289;51.670;5.624;2023-12-20T01:41:43;17.50;;;3.70;;
63193;SDS011;49289;51.670;5.624;2023-12-20T01:43:30;16.40;;;3.70;;
63193;SDS011;49289;51.670;5.624;2023-12-20T01:45:17;15.60;;;3.60;;
63193;SDS011;49289;51.670;5.624;2023-12-20T01:47:04;16.10;;;3.50;;
63193;SDS011;49289;51.670;5.624;2023-12-20T01:48:51;17.60;;;3.00;;
63193;SDS011;49289;51.670;5.624;2023-12-20T01:50:38;13.80;;;3.40;;
63193;SDS011;49289;51.670;5.624;2023-12-20T01:52:25;17.70;;;3.80;;
63193;SDS011;49289;51.670;5.624;2023-12-20T01:54:11;19.70;;;3.70;;
63193;SDS011;49289;51.670;5.624;2023-12-20T01:55:58;16.50;;;3.30;;
63193;SDS011;49289;51.670;5.624;2023-12-20T01:57:45;21.20;;;3.80;;
63193;SDS011;49289;51.670;5.624;2023-12-20T01:59:32;23.20;;;3.80;;
63193;SDS011;49289;51.670;5.624;2023-12-20T02:01:19;15.00;;;3.40;;
63193;SDS011;49289;51.670;5.624;2023-12-20T02:03:07;16.90;;;3.20;;
63193;SDS011;49289;51.670;5.624;2023-12-20T02:04:53;19.50;;;3.70;;
63193;SDS011;49289;51.670;5.624;2023-12-20T02:06:40;16.80;;;3.70;;
63193;SDS011;49289;51.670;5.624;2023-12-20T02:08:27;22.40;;;4.10;;
63193;SDS011;49289;51.670;5.624;2023-12-20T02:10:14;15.30;;;3.50;;
63193;SDS011;49289;51.670;5.624;2023-12-20T02:12:01;21.00;;;4.30;;
63193;SDS011;49289;51.670;5.624;2023-12-20T02:13:49;17.00;;;4.10;;
63193;SDS011;49289;51.670;5.624;2023-12-20T02:15:36;20.90;;;4.20;;
63193;SDS011;49289;51.670;5.624;2023-12-20T02:17:22;19.40;;;3.80;;
63193;SDS011;49289;51.670;5.624;2023-12-20T02:19:11;18.30;;;3.50;;
63193;SDS011;49289;51.670;5.624;2023-12-20T02:20:56;15.70;;;3.90;;
63193;SDS011;49289;51.670;5.624;2023-12-20T02:22:43;22.00;;;4.00;;
63193;SDS011;49289;51.670;5.624;2023-12-20T02:24:30;27.00;;;4.50;;
63193;SDS011;49289;51.670;5.624;2023-12-20T02:26:17;20.80;;;3.90;;
63193;SDS011;49289;51.670;5.624;2023-12-20T02:28:04;18.40;;;4.00;;
63193;SDS011;49289;51.670;5.624;2023-12-20T02:29:51;19.10;;;4.50;;
63193;SDS011;49289;51.670;5.624;2023-12-20T02:31:38;20.10;;;4.10;;
63193;SDS011;49289;51.670;5.624;2023-12-20T02:33:25;18.60;;;4.20;;
63193;SDS011;49289;51.670;5.624;2023-12-20T02:35:12;15.50;;;4.00;;
63193;SDS011;49289;51.670;5.624;2023-12-20T02:36:59;22.80;;;4.00;;
63193;SDS011;49289;51.670;5.624;2023-12-20T02:38:46;18.60;;;4.10;;
63193;SDS011;49289;51.670;5.624;2023-12-20T02:40:33;20.40;;;3.80;;
63193;SDS011;49289;51.670;5.624;2023-12-20T02:42:20;18.80;;;4.10;;
63193;SDS011;49289;51.670;5.624;2023-12-20T02:44:07;22.20;;;4.50;;
63193;SDS011;49289;51.670;5.624;2023-12-20T02:45:54;22.90;;;4.60;;
63193;SDS011;49289;51.670;5.624;2023-12-20T02:47:41;23.70;;;4.70;;
63193;SDS011;49289;51.670;5.624;2023-12-20T02:49:28;22.10;;;4.00;;
63193;SDS011;49289;51.670;5.624;2023-12-20T02:51:15;21.00;;;4.40;;
63193;SDS011;49289;51.670;5.624;2023-12-20T02:53:02;21.70;;;4.10;;
63193;SDS011;49289;51.670;5.624;2023-12-20T02:54:49;21.50;;;4.00;;
63193;SDS011;49289;51.670;5.624;2023-12-20T02:56:36;19.70;;;4.40;;
63193;SDS011;49289;51.670;5.624;2023-12-20T02:58:23;24.80;;;4.40;;
63193;SDS011;49289;51.670;5.624;2023-12-20T03:00:11;22.20;;;4.40;;
63193;SDS011;49289;51.670;5.624;2023-12-20T03:01:58;23.60;;;4.40;;
63193;SDS011;49289;51.670;5.624;2023-12-20T03:03:45;21.10;;;5.10;;
63193;SDS011;49289;51.670;5.624;2023-12-20T03:05:32;18.90;;;4.00;;
63193;SDS011;49289;51.670;5.624;2023-12-20T03:07:19;25.40;;;4.60;;
63193;SDS011;49289;51.670;5.624;2023-12-20T03:09:06;26.60;;;4.40;;
63193;SDS011;49289;51.670;5.624;2023-12-20T03:10:53;23.80;;;5.00;;
63193;SDS011;49289;51.670;5.624;2023-12-20T03:12:40;21.60;;;4.90;;
63193;SDS011;49289;51.670;5.624;2023-12-20T03:14:27;26.00;;;4.70;;
63193;SDS011;49289;51.670;5.624;2023-12-20T03:16:14;23.30;;;4.00;;
63193;SDS011;49289;51.670;5.624;2023-12-20T03:18:01;20.60;;;4.30;;
63193;SDS011;49289;51.670;5.624;2023-12-20T03:19:48;22.70;;;4.90;;
63193;SDS011;49289;51.670;5.624;2023-12-20T03:21:35;22.70;;;4.90;;
63193;SDS011;49289;51.670;5.624;2023-12-20T03:23:22;22.00;;;4.40;;
63193;SDS011;49289;51.670;5.624;2023-12-20T03:25:09;22.80;;;5.10;;
63193;SDS011;49289;51.670;5.624;2023-12-20T03:26:56;29.20;;;5.70;;
63193;SDS011;49289;51.670;5.624;2023-12-20T03:28:43;22.40;;;4.60;;
63193;SDS011;49289;51.670;5.624;2023-12-20T03:30:30;24.00;;;5.10;;
63193;SDS011;49289;51.670;5.624;2023-12-20T03:32:17;24.00;;;4.90;;
63193;SDS011;49289;51.670;5.624;2023-12-20T03:34:04;23.90;;;5.10;;
63193;SDS011;49289;51.670;5.624;2023-12-20T03:35:51;27.30;;;4.80;;
63193;SDS011;49289;51.670;5.624;2023-12-20T03:37:38;24.80;;;5.00;;
63193;SDS011;49289;51.670;5.624;2023-12-20T03:39:25;21.10;;;4.90;;
63193;SDS011;49289;51.670;5.624;2023-12-20T03:41:12;28.00;;;5.40;;
63193;SDS011;49289;51.670;5.624;2023-12-20T03:42:59;25.60;;;4.90;;
63193;SDS011;49289;51.670;5.624;2023-12-20T03:44:46;21.40;;;4.70;;
63193;SDS011;49289;51.670;5.624;2023-12-20T03:46:33;27.90;;;5.40;;
63193;SDS011;49289;51.670;5.624;2023-12-20T03:48:20;27.40;;;5.20;;
63193;SDS011;49289;51.670;5.624;2023-12-20T03:50:07;21.70;;;5.00;;
63193;SDS011;49289;51.670;5.624;2023-12-20T03:51:54;25.80;;;5.10;;
63193;SDS011;49289;51.670;5.624;2023-12-20T03:53:41;25.00;;;5.40;;
63193;SDS011;49289;51.670;5.624;2023-12-20T03:55:28;25.50;;;4.80;;
63193;SDS011;49289;51.670;5.624;2023-12-20T03:57:15;24.10;;;4.70;;
63193;SDS011;49289;51.670;5.624;2023-12-20T03:59:02;24.70;;;5.30;;
63193;SDS011;49289;51.670;5.624;2023-12-20T04:00:49;23.70;;;4.60;;
63193;SDS011;49289;51.670;5.624;2023-12-20T04:02:36;27.60;;;4.80;;
63193;SDS011;49289;51.670;5.624;2023-12-20T04:04:23;25.50;;;5.10;;
63193;SDS011;49289;51.670;5.624;2023-12-20T04:06:10;27.10;;;4.80;;
63193;SDS011;49289;51.670;5.624;2023-12-20T04:08:01;24.20;;;4.90;;
63193;SDS011;49289;51.670;5.624;2023-12-20T04:09:49;23.80;;;4.80;;
63193;SDS011;49289;51.670;5.624;2023-12-20T04:11:36;19.80;;;5.00;;
63193;SDS011;49289;51.670;5.624;2023-12-20T04:13:23;24.20;;;4.50;;
63193;SDS011;49289;51.670;5.624;2023-12-20T04:15:10;20.70;;;4.30;;
63193;SDS011;49289;51.670;5.624;2023-12-20T04:16:58;23.00;;;5.00;;
63193;SDS011;49289;51.670;5.624;2023-12-20T04:18:44;23.40;;;5.20;;
63193;SDS011;49289;51.670;5.624;2023-12-20T04:20:31;23.60;;;4.90;;
63193;SDS011;49289;51.670;5.624;2023-12-20T04:22:18;24.90;;;5.50;;
63193;SDS011;49289;51.670;5.624;2023-12-20T04:24:05;23.30;;;5.60;;
63193;SDS011;49289;51.670;5.624;2023-12-20T04:25:52;22.90;;;4.90;;
63193;SDS011;49289;51.670;5.624;2023-12-20T04:27:39;21.20;;;4.90;;
63193;SDS011;49289;51.670;5.624;2023-12-20T04:29:26;24.00;;;5.30;;
63193;SDS011;49289;51.670;5.624;2023-12-20T04:31:13;22.30;;;5.20;;
63193;SDS011;49289;51.670;5.624;2023-12-20T04:33:00;27.70;;;4.70;;
63193;SDS011;49289;51.670;5.624;2023-12-20T04:34:47;24.70;;;4.80;;
63193;SDS011;49289;51.670;5.624;2023-12-20T04:36:34;19.50;;;4.70;;
63193;SDS011;49289;51.670;5.624;2023-12-20T04:38:21;21.40;;;4.80;;
63193;SDS011;49289;51.670;5.624;2023-12-20T04:40:09;23.60;;;5.00;;
63193;SDS011;49289;51.670;5.624;2023-12-20T04:41:56;22.70;;;4.70;;
63193;SDS011;49289;51.670;5.624;2023-12-20T04:43:43;23.30;;;4.40;;
63193;SDS011;49289;51.670;5.624;2023-12-20T04:45:30;24.50;;;4.70;;
63193;SDS011;49289;51.670;5.624;2023-12-20T04:47:17;22.00;;;5.10;;
63193;SDS011;49289;51.670;5.624;2023-12-20T04:49:04;28.20;;;5.20;;
63193;SDS011;49289;51.670;5.624;2023-12-20T04:50:51;21.00;;;4.30;;
63193;SDS011;49289;51.670;5.624;2023-12-20T04:52:38;25.30;;;4.50;;
63193;SDS011;49289;51.670;5.624;2023-12-20T04:54:25;27.80;;;5.00;;
63193;SDS011;49289;51.670;5.624;2023-12-20T04:56:12;25.70;;;5.40;;
63193;SDS011;49289;51.670;5.624;2023-12-20T04:57:59;21.30;;;4.20;;
63193;SDS011;49289;51.670;5.624;2023-12-20T04:59:46;24.10;;;4.20;;
63193;SDS011;49289;51.670;5.624;2023-12-20T05:01:33;23.60;;;4.60;;
63193;SDS011;49289;51.670;5.624;2023-12-20T05:03:20;21.70;;;4.50;;
63193;SDS011;49289;51.670;5.624;2023-12-20T05:05:07;31.10;;;5.20;;
63193;SDS011;49289;51.670;5.624;2023-12-20T05:06:54;28.10;;;4.50;;
63193;SDS011;49289;51.670;5.624;2023-12-20T05:08:41;24.00;;;4.50;;
63193;SDS011;49289;51.670;5.624;2023-12-20T05:10:42;24.80;;;4.30;;
63193;SDS011;49289;51.670;5.624;2023-12-20T05:12:29;24.90;;;4.90;;
63193;SDS011;49289;51.670;5.624;2023-12-20T05:14:16;28.10;;;5.10;;
63193;SDS011;49289;51.670;5.624;2023-12-20T05:16:03;24.00;;;4.90;;
63193;SDS011;49289;51.670;5.624;2023-12-20T05:17:50;23.10;;;4.60;;
63193;SDS011;49289;51.670;5.624;2023-12-20T05:19:37;19.60;;;4.20;;
63193;SDS011;49289;51.670;5.624;2023-12-20T05:21:24;24.70;;;4.80;;
63193;SDS011;49289;51.670;5.624;2023-12-20T05:23:11;25.90;;;4.60;;
63193;SDS011;49289;51.670;5.624;2023-12-20T05:24:58;24.30;;;4.70;;
63193;SDS011;49289;51.670;5.624;2023-12-20T05:26:45;21.70;;;4.90;;
63193;SDS011;49289;51.670;5.624;2023-12-20T05:28:32;24.70;;;4.40;;
63193;SDS011;49289;51.670;5.624;2023-12-20T05:30:19;21.70;;;4.70;;
63193;SDS011;49289;51.670;5.624;2023-12-20T05:32:06;23.70;;;4.40;;
63193;SDS011;49289;51.670;5.624;2023-12-20T05:33:53;23.60;;;4.30;;
63193;SDS011;49289;51.670;5.624;2023-12-20T05:35:40;21.70;;;4.60;;
63193;SDS011;49289;51.670;5.624;2023-12-20T05:37:27;25.10;;;5.00;;
63193;SDS011;49289;51.670;5.624;2023-12-20T05:39:14;29.10;;;4.80;;
63193;SDS011;49289;51.670;5.624;2023-12-20T05:41:01;27.60;;;4.80;;
63193;SDS011;49289;51.670;5.624;2023-12-20T05:42:48;23.70;;;4.70;;
63193;SDS011;49289;51.670;5.624;2023-12-20T05:44:35;25.20;;;4.30;;
63193;SDS011;49289;51.670;5.624;2023-12-20T05:46:22;23.80;;;5.00;;
63193;SDS011;49289;51.670;5.624;2023-12-20T05:48:10;24.10;;;4.70;;
63193;SDS011;49289;51.670;5.624;2023-12-20T05:49:57;21.40;;;4.40;;
63193;SDS011;49289;51.670;5.624;2023-12-20T05:51:43;23.90;;;4.20;;
63193;SDS011;49289;51.670;5.624;2023-12-20T05:53:30;30.50;;;5.20;;
63193;SDS011;49289;51.670;5.624;2023-12-20T05:55:18;24.90;;;4.80;;
63193;SDS011;49289;51.670;5.624;2023-12-20T05:57:04;24.90;;;4.80;;
63193;SDS011;49289;51.670;5.624;2023-12-20T05:58:51;24.60;;;4.70;;
63193;SDS011;49289;51.670;5.624;2023-12-20T06:00:38;27.70;;;4.50;;
63193;SDS011;49289;51.670;5.624;2023-12-20T06:02:25;25.40;;;3.90;;
63193;SDS011;49289;51.670;5.624;2023-12-20T06:04:12;22.80;;;4.50;;
63193;SDS011;49289;51.670;5.624;2023-12-20T06:05:59;17.40;;;3.80;;
63193;SDS011;49289;51.670;5.624;2023-12-20T06:07:50;25.80;;;4.40;;
63193;SDS011;49289;51.670;5.624;2023-12-20T06:09:37;23.60;;;5.00;;
63193;SDS011;49289;51.670;5.624;2023-12-20T06:11:24;23.60;;;4.70;;
63193;SDS011;49289;51.670;5.624;2023-12-20T06:13:11;24.40;;;4.90;;
63193;SDS011;49289;51.670;5.624;2023-12-20T06:14:58;21.80;;;4.20;;
63193;SDS011;49289;51.670;5.624;2023-12-20T06:16:45;22.10;;;4.00;;
63193;SDS011;49289;51.670;5.624;2023-12-20T06:18:32;22.00;;;4.50;;
63193;SDS011;49289;51.670;5.624;2023-12-20T06:20:19;24.40;;;4.80;;
63193;SDS011;49289;51.670;5.624;2023-12-20T06:22:07;25.60;;;4.80;;
63193;SDS011;49289;51.670;5.624;2023-12-20T06:23:54;23.40;;;4.60;;
63193;SDS011;49289;51.670;5.624;2023-12-20T06:25:41;24.10;;;3.90;;
63193;SDS011;49289;51.670;5.624;2023-12-20T06:29:15;20.20;;;4.40;;
63193;SDS011;49289;51.670;5.624;2023-12-20T06:31:01;18.00;;;3.90;;
63193;SDS011;49289;51.670;5.624;2023-12-20T06:32:48;28.80;;;4.60;;
63193;SDS011;49289;51.670;5.624;2023-12-20T06:34:35;19.60;;;3.90;;
63193;SDS011;49289;51.670;5.624;2023-12-20T06:36:22;25.80;;;4.70;;
63193;SDS011;49289;51.670;5.624;2023-12-20T06:38:09;24.10;;;4.20;;
63193;SDS011;49289;51.670;5.624;2023-12-20T06:39:56;23.70;;;4.60;;
63193;SDS011;49289;51.670;5.624;2023-12-20T06:41:43;21.30;;;4.50;;
63193;SDS011;49289;51.670;5.624;2023-12-20T06:43:30;20.80;;;4.30;;
63193;SDS011;49289;51.670;5.624;2023-12-20T06:45:17;23.60;;;4.40;;
63193;SDS011;49289;51.670;5.624;2023-12-20T06:47:04;26.80;;;5.10;;
63193;SDS011;49289;51.670;5.624;2023-12-20T06:48:51;23.70;;;5.00;;
63193;SDS011;49289;51.670;5.624;2023-12-20T06:50:38;21.80;;;4.40;;
63193;SDS011;49289;51.670;5.624;2023-12-20T06:52:25;18.40;;;4.40;;
63193;SDS011;49289;51.670;5.624;2023-12-20T06:54:12;22.30;;;4.60;;
63193;SDS011;49289;51.670;5.624;2023-12-20T06:55:59;23.90;;;4.70;;
63193;SDS011;49289;51.670;5.624;2023-12-20T06:57:46;19.10;;;4.30;;
63193;SDS011;49289;51.670;5.624;2023-12-20T06:59:33;23.10;;;4.50;;
63193;SDS011;49289;51.670;5.624;2023-12-20T07:01:23;21.60;;;5.00;;
63193;SDS011;49289;51.670;5.624;2023-12-20T07:03:10;20.00;;;4.70;;
63193;SDS011;49289;51.670;5.624;2023-12-20T07:04:57;20.80;;;4.50;;
63193;SDS011;49289;51.670;5.624;2023-12-20T07:06:44;22.30;;;4.50;;
63193;SDS011;49289;51.670;5.624;2023-12-20T07:08:31;23.60;;;4.90;;
63193;SDS011;49289;51.670;5.624;2023-12-20T07:10:18;20.60;;;4.40;;
63193;SDS011;49289;51.670;5.624;2023-12-20T07:12:05;22.80;;;5.00;;
63193;SDS011;49289;51.670;5.624;2023-12-20T07:13:52;22.30;;;4.50;;
63193;SDS011;49289;51.670;5.624;2023-12-20T07:15:39;22.50;;;4.90;;
63193;SDS011;49289;51.670;5.624;2023-12-20T07:17:26;26.20;;;5.70;;
63193;SDS011;49289;51.670;5.624;2023-12-20T07:19:13;20.30;;;4.40;;
63193;SDS011;49289;51.670;5.624;2023-12-20T07:21:00;21.90;;;4.90;;
63193;SDS011;49289;51.670;5.624;2023-12-20T07:22:47;21.10;;;4.10;;
63193;SDS011;49289;51.670;5.624;2023-12-20T07:24:35;23.40;;;4.90;;
63193;SDS011;49289;51.670;5.624;2023-12-20T07:26:22;19.60;;;4.30;;
63193;SDS011;49289;51.670;5.624;2023-12-20T07:28:09;23.00;;;4.10;;
63193;SDS011;49289;51.670;5.624;2023-12-20T07:29:56;23.30;;;4.80;;
63193;SDS011;49289;51.670;5.624;2023-12-20T07:31:43;27.10;;;4.90;;
63193;SDS011;49289;51.670;5.624;2023-12-20T07:33:30;21.50;;;4.50;;
63193;SDS011;49289;51.670;5.624;2023-12-20T07:35:17;24.90;;;4.70;;
63193;SDS011;49289;51.670;5.624;2023-12-20T07:37:04;19.80;;;4.60;;
63193;SDS011;49289;51.670;5.624;2023-12-20T07:38:51;24.40;;;5.10;;
63193;SDS011;49289;51.670;5.624;2023-12-20T07:40:38;20.90;;;4.50;;
63193;SDS011;49289;51.670;5.624;2023-12-20T07:42:25;25.80;;;4.70;;
63193;SDS011;49289;51.670;5.624;2023-12-20T07:44:12;19.80;;;4.80;;
63193;SDS011;49289;51.670;5.624;2023-12-20T07:46:01;28.10;;;5.10;;
63193;SDS011;49289;51.670;5.624;2023-12-20T07:47:49;23.40;;;5.70;;
63193;SDS011;49289;51.670;5.624;2023-12-20T07:49:36;22.30;;;5.00;;
63193;SDS011;49289;51.670;5.624;2023-12-20T07:51:23;23.60;;;5.00;;
63193;SDS011;49289;51.670;5.624;2023-12-20T07:53:10;18.40;;;4.40;;
63193;SDS011;49289;51.670;5.624;2023-12-20T07:54:57;26.80;;;5.30;;
63193;SDS011;49289;51.670;5.624;2023-12-20T07:56:44;18.60;;;5.00;;
63193;SDS011;49289;51.670;5.624;2023-12-20T07:58:31;21.00;;;5.40;;
63193;SDS011;49289;51.670;5.624;2023-12-20T08:00:19;24.10;;;5.20;;
63193;SDS011;49289;51.670;5.624;2023-12-20T08:02:06;27.10;;;5.60;;
63193;SDS011;49289;51.670;5.624;2023-12-20T08:03:53;25.00;;;6.00;;
63193;SDS011;49289;51.670;5.624;2023-12-20T08:05:40;26.20;;;6.20;;
63193;SDS011;49289;51.670;5.624;2023-12-20T08:07:27;19.80;;;5.70;;
63193;SDS011;49289;51.670;5.624;2023-12-20T08:09:14;24.00;;;5.60;;
63193;SDS011;49289;51.670;5.624;2023-12-20T08:11:01;20.80;;;5.20;;
63193;SDS011;49289;51.670;5.624;2023-12-20T08:12:48;20.30;;;5.60;;
63193;SDS011;49289;51.670;5.624;2023-12-20T08:14:35;19.80;;;5.60;;
63193;SDS011;49289;51.670;5.624;2023-12-20T08:16:22;24.80;;;5.50;;
63193;SDS011;49289;51.670;5.624;2023-12-20T08:18:09;26.10;;;5.60;;
63193;SDS011;49289;51.670;5.624;2023-12-20T08:19:56;21.70;;;5.50;;
63193;SDS011;49289;51.670;5.624;2023-12-20T08:21:43;19.30;;;5.20;;
63193;SDS011;49289;51.670;5.624;2023-12-20T08:23:30;22.80;;;5.80;;
63193;SDS011;49289;51.670;5.624;2023-12-20T08:25:17;24.40;;;5.20;;
63193;SDS011;49289;51.670;5.624;2023-12-20T08:27:04;22.00;;;4.80;;
63193;SDS011;49289;51.670;5.624;2023-12-20T08:28:51;21.70;;;5.10;;
63193;SDS011;49289;51.670;5.624;2023-12-20T08:30:38;25.60;;;4.90;;
63193;SDS011;49289;51.670;5.624;2023-12-20T08:32:25;26.60;;;5.30;;
63193;SDS011;49289;51.670;5.624;2023-12-20T08:34:12;21.70;;;5.30;;
63193;SDS011;49289;51.670;5.624;2023-12-20T08:35:59;21.80;;;5.10;;
63193;SDS011;49289;51.670;5.624;2023-12-20T08:37:46;24.20;;;5.10;;
63193;SDS011;49289;51.670;5.624;2023-12-20T08:39:33;21.40;;;4.70;;
63193;SDS011;49289;51.670;5.624;2023-12-20T08:41:20;22.00;;;4.70;;
63193;SDS011;49289;51.670;5.624;2023-12-20T08:43:07;20.20;;;4.60;;
63193;SDS011;49289;51.670;5.624;2023-12-20T08:44:54;20.00;;;4.80;;
63193;SDS011;49289;51.670;5.624;2023-12-20T08:46:41;17.80;;;4.40;;
63193;SDS011;49289;51.670;5.624;2023-12-20T08:48:28;23.60;;;5.00;;
63193;SDS011;49289;51.670;5.624;2023-12-20T08:50:16;20.30;;;5.00;;
63193;SDS011;49289;51.670;5.624;2023-12-20T08:52:02;22.90;;;5.50;;
63193;SDS011;49289;51.670;5.624;2023-12-20T08:53:50;18.80;;;4.60;;
63193;SDS011;49289;51.670;5.624;2023-12-20T08:55:36;21.80;;;5.30;;
63193;SDS011;49289;51.670;5.624;2023-12-20T08:57:23;18.90;;;4.60;;
63193;SDS011;49289;51.670;5.624;2023-12-20T08:59:10;23.00;;;5.30;;
63193;SDS011;49289;51.670;5.624;2023-12-20T09:00:57;23.20;;;4.50;;
63193;SDS011;49289;51.670;5.624;2023-12-20T09:02:44;23.00;;;4.60;;
63193;SDS011;49289;51.670;5.624;2023-12-20T09:04:31;21.60;;;4.80;;
63193;SDS011;49289;51.670;5.624;2023-12-20T09:06:18;20.80;;;4.60;;
63193;SDS011;49289;51.670;5.624;2023-12-20T09:08:07;24.70;;;4.90;;
63193;SDS011;49289;51.670;5.624;2023-12-20T09:09:54;23.40;;;4.80;;
63193;SDS011;49289;51.670;5.624;2023-12-20T09:11:41;20.70;;;5.00;;
63193;SDS011;49289;51.670;5.624;2023-12-20T09:13:28;20.40;;;4.50;;
63193;SDS011;49289;51.670;5.624;2023-12-20T09:15:15;19.40;;;3.90;;
63193;SDS011;49289;51.670;5.624;2023-12-20T09:17:02;21.60;;;5.40;;
63193;SDS011;49289;51.670;5.624;2023-12-20T09:18:49;18.70;;;4.20;;
63193;SDS011;49289;51.670;5.624;2023-12-20T09:20:36;24.90;;;4.80;;
63193;SDS011;49289;51.670;5.624;2023-12-20T09:22:23;18.90;;;4.80;;
63193;SDS011;49289;51.670;5.624;2023-12-20T09:24:10;21.30;;;4.80;;
63193;SDS011;49289;51.670;5.624;2023-12-20T09:25:57;17.90;;;4.10;;
63193;SDS011;49289;51.670;5.624;2023-12-20T09:27:44;19.20;;;4.10;;
63193;SDS011;49289;51.670;5.624;2023-12-20T09:29:31;22.50;;;4.30;;
63193;SDS011;49289;51.670;5.624;2023-12-20T09:31:18;24.90;;;5.20;;
63193;SDS011;49289;51.670;5.624;2023-12-20T09:33:05;20.20;;;4.60;;
63193;SDS011;49289;51.670;5.624;2023-12-20T09:34:52;23.90;;;4.40;;
63193;SDS011;49289;51.670;5.624;2023-12-20T09:36:39;19.40;;;4.20;;
63193;SDS011;49289;51.670;5.624;2023-12-20T09:38:27;19.10;;;4.40;;
63193;SDS011;49289;51.670;5.624;2023-12-20T09:40:14;23.80;;;4.60;;
63193;SDS011;49289;51.670;5.624;2023-12-20T09:42:03;17.40;;;4.60;;
63193;SDS011;49289;51.670;5.624;2023-12-20T09:43:50;20.60;;;4.50;;
63193;SDS011;49289;51.670;5.624;2023-12-20T09:45:37;23.20;;;4.40;;
63193;SDS011;49289;51.670;5.624;2023-12-20T09:47:25;23.40;;;4.60;;
63193;SDS011;49289;51.670;5.624;2023-12-20T09:49:12;25.20;;;4.60;;
63193;SDS011;49289;51.670;5.624;2023-12-20T09:50:59;22.70;;;5.50;;
63193;SDS011;49289;51.670;5.624;2023-12-20T09:52:45;19.20;;;4.50;;
63193;SDS011;49289;51.670;5.624;2023-12-20T09:54:33;21.10;;;4.20;;
63193;SDS011;49289;51.670;5.624;2023-12-20T09:56:20;19.50;;;4.40;;
63193;SDS011;49289;51.670;5.624;2023-12-20T09:58:07;18.30;;;4.40;;
63193;SDS011;49289;51.670;5.624;2023-12-20T09:59:54;21.30;;;4.70;;
63193;SDS011;49289;51.670;5.624;2023-12-20T10:01:41;21.60;;;4.70;;
63193;SDS011;49289;51.670;5.624;2023-12-20T10:03:28;17.50;;;4.20;;
63193;SDS011;49289;51.670;5.624;2023-12-20T10:05:16;20.60;;;4.00;;
63193;SDS011;49289;51.670;5.624;2023-12-20T10:07:02;19.30;;;4.30;;
63193;SDS011;49289;51.670;5.624;2023-12-20T10:08:49;18.60;;;4.00;;
63193;SDS011;49289;51.670;5.624;2023-12-20T10:10:36;18.10;;;4.30;;
63193;SDS011;49289;51.670;5.624;2023-12-20T10:12:23;21.10;;;4.40;;
63193;SDS011;49289;51.670;5.624;2023-12-20T10:14:10;19.20;;;4.30;;
63193;SDS011;49289;51.670;5.624;2023-12-20T10:15:57;22.20;;;4.30;;
63193;SDS011;49289;51.670;5.624;2023-12-20T10:17:44;22.90;;;4.70;;
63193;SDS011;49289;51.670;5.624;2023-12-20T10:19:32;25.40;;;4.80;;
63193;SDS011;49289;51.670;5.624;2023-12-20T10:21:19;23.20;;;4.60;;
63193;SDS011;49289;51.670;5.624;2023-12-20T10:23:05;24.50;;;4.50;;
63193;SDS011;49289;51.670;5.624;2023-12-20T10:24:52;18.40;;;4.40;;
63193;SDS011;49289;51.670;5.624;2023-12-20T10:26:39;21.00;;;4.40;;
63193;SDS011;49289;51.670;5.624;2023-12-20T10:28:28;23.20;;;5.00;;
63193;SDS011;49289;51.670;5.624;2023-12-20T10:30:14;21.20;;;4.80;;
63193;SDS011;49289;51.670;5.624;2023-12-20T10:32:01;22.80;;;4.70;;
63193;SDS011;49289;51.670;5.624;2023-12-20T10:34:05;18.30;;;4.10;;
63193;SDS011;49289;51.670;5.624;2023-12-20T10:35:52;20.30;;;4.30;;